createdAt,value
2022-09-12T00:06:36.339Z,13.23
2022-09-12T00:16:37.737Z,13.17
2022-09-12T00:26:39.112Z,13.11
2022-09-12T00:36:40.435Z,13.04
2022-09-12T00:46:41.727Z,12.97
2022-09-12T00:56:43.055Z,13.00
2022-09-12T01:06:44.412Z,12.91
2022-09-12T01:16:45.741Z,12.83
2022-09-12T01:26:47.125Z,12.79
2022-09-12T01:36:50.927Z,12.74
2022-09-12T01:46:52.241Z,12.80
2022-09-12T01:56:53.541Z,12.77
2022-09-12T02:06:54.820Z,12.73
2022-09-12T02:16:56.094Z,12.64
2022-09-12T02:26:57.380Z,12.54
2022-09-12T02:36:58.734Z,12.55
2022-09-12T02:47:00.050Z,12.37
2022-09-12T02:57:01.375Z,12.32
2022-09-12T03:07:02.647Z,12.27
2022-09-12T03:17:03.941Z,12.15
2022-09-12T03:27:05.456Z,12.07
2022-09-12T03:37:06.751Z,11.92
2022-09-12T03:47:11.116Z,11.94
2022-09-12T03:57:12.748Z,11.92
2022-09-12T04:07:14.080Z,11.80
2022-09-12T04:17:15.381Z,11.59
2022-09-12T04:27:16.677Z,11.48
2022-09-12T04:37:17.991Z,11.48
2022-09-12T04:47:19.316Z,11.47
2022-09-12T04:57:20.613Z,11.44
2022-09-12T05:07:21.952Z,11.41
2022-09-12T05:17:23.253Z,11.45
2022-09-12T05:27:24.574Z,11.61
2022-09-12T05:37:25.933Z,11.71
2022-09-12T05:47:27.249Z,11.92
2022-09-12T05:57:29.333Z,12.06
2022-09-12T06:07:31.978Z,12.28
2022-09-12T06:17:33.402Z,12.54
2022-09-12T06:27:34.734Z,12.68
2022-09-12T06:37:36.031Z,12.95
2022-09-12T06:47:37.388Z,13.34
2022-09-12T06:57:38.955Z,13.55
2022-09-12T07:07:40.269Z,13.86
2022-09-12T07:17:41.593Z,14.06
2022-09-12T07:27:44.730Z,14.31
2022-09-12T07:37:47.508Z,14.52
2022-09-12T07:47:48.835Z,14.93
2022-09-12T07:57:50.787Z,15.10
2022-09-12T08:07:55.855Z,15.39
2022-09-12T08:17:59.092Z,15.77
2022-09-12T08:28:01.419Z,16.19
2022-09-12T08:38:02.698Z,16.52
2022-09-12T08:48:03.995Z,16.88
2022-09-12T08:58:05.331Z,17.24
2022-09-12T09:08:06.630Z,17.52
2022-09-12T09:18:07.937Z,18.01
2022-09-12T09:28:09.298Z,18.35
2022-09-12T09:38:10.646Z,18.70
2022-09-12T09:48:11.938Z,19.11
2022-09-12T09:58:13.213Z,19.26
2022-09-12T10:08:14.577Z,19.85
2022-09-12T10:18:16.725Z,20.19
2022-09-12T10:28:18.052Z,20.34
2022-09-12T10:38:19.404Z,20.82
2022-09-12T10:48:20.680Z,20.90
2022-09-12T10:58:21.969Z,21.23
2022-09-12T11:08:23.269Z,21.44
2022-09-12T11:18:24.581Z,21.47
2022-09-12T11:28:25.970Z,21.75
2022-09-12T11:38:27.328Z,21.66
2022-09-12T11:48:28.672Z,21.77
2022-09-12T11:58:29.898Z,22.03
2022-09-12T12:08:31.914Z,22.08
2022-09-12T12:18:33.217Z,22.28
2022-09-12T12:28:34.874Z,22.50
2022-09-12T12:38:36.429Z,22.63
2022-09-12T12:48:37.808Z,22.87
2022-09-12T12:58:40.657Z,22.79
2022-09-12T13:08:41.984Z,22.97
2022-09-12T13:18:43.352Z,23.30
2022-09-12T13:28:44.695Z,23.27
2022-09-12T13:38:46.026Z,23.04
2022-09-12T13:48:47.471Z,23.15
2022-09-12T13:58:49.382Z,23.52
2022-09-12T14:08:51.942Z,23.75
2022-09-12T14:18:53.238Z,23.73
2022-09-12T14:28:54.546Z,23.41
2022-09-12T14:38:55.840Z,23.28
2022-09-12T14:48:57.705Z,23.70
2022-09-12T14:59:00.801Z,23.76
2022-09-12T15:09:02.084Z,23.73
2022-09-12T15:19:03.484Z,24.04
2022-09-12T15:29:04.877Z,24.00
2022-09-12T15:39:06.228Z,23.71
2022-09-12T15:49:07.654Z,23.83
2022-09-12T15:59:09.138Z,23.71
2022-09-12T16:09:13.663Z,23.76
2022-09-12T16:19:17.830Z,23.76
2022-09-12T16:29:19.138Z,23.41
2022-09-12T16:39:20.526Z,23.16
2022-09-12T16:49:21.914Z,22.90
2022-09-12T16:59:23.304Z,22.17
2022-09-12T17:09:25.131Z,21.78
2022-09-12T17:19:26.766Z,21.18
2022-09-12T17:29:28.465Z,20.70
2022-09-12T17:39:29.787Z,20.31
2022-09-12T17:49:31.808Z,19.90
2022-09-12T17:59:33.038Z,19.46
2022-09-12T18:09:34.410Z,19.12
2022-09-12T18:19:35.788Z,18.73
2022-09-12T18:29:37.124Z,18.44
2022-09-12T18:39:38.467Z,18.19
2022-09-12T18:49:39.794Z,17.86
2022-09-12T18:59:41.026Z,17.63
2022-09-12T19:09:42.719Z,17.52
2022-09-12T19:19:44.015Z,17.32
2022-09-12T19:29:46.650Z,17.17
2022-09-12T19:39:47.917Z,16.92
2022-09-12T19:49:49.207Z,16.78
2022-09-12T19:59:50.463Z,16.64
2022-09-12T20:09:51.809Z,16.53
2022-09-12T20:19:53.130Z,16.33
2022-09-12T20:29:54.603Z,16.12
2022-09-12T20:39:55.871Z,15.93
2022-09-12T20:49:57.221Z,15.76
2022-09-12T20:59:58.517Z,15.79
2022-09-12T21:09:59.906Z,15.73
2022-09-12T21:20:01.253Z,15.64
2022-09-12T21:30:03.907Z,15.55
2022-09-12T21:40:05.362Z,15.45
2022-09-12T21:50:06.829Z,15.39
2022-09-12T22:00:08.245Z,15.16
2022-09-12T22:10:09.608Z,15.03
2022-09-12T22:20:10.938Z,14.80
2022-09-12T22:30:12.466Z,14.75
2022-09-12T22:40:13.795Z,14.69
2022-09-12T22:50:15.226Z,14.56
2022-09-12T23:00:18.143Z,14.51
2022-09-12T23:10:19.464Z,14.45
2022-09-12T23:20:20.772Z,14.37
2022-09-12T23:30:22.091Z,14.28
2022-09-12T23:40:23.490Z,14.14
2022-09-12T23:50:25.082Z,14.07
